Washburn, Wisconsin
Current Conditions -  °F | °C
As of 3:53 AM on Sunday 26 Oct 2014 (Local Time) from KASX Reporting Station
Clear Clear  
Wind Chill: 28°   Ceiling: Unl
Heat Index: 34°   Visibility: 10mi
Dew Point: 27°   Wind: 7mph
Humidity: 75%   Direction: 220°SW
Pressure: 29.98"   Gusts: NA
Location:  46.67°N, 90.89°W
Report Text: KASX 260853Z AUTO 22006KT 10SM CLR 01/M03 A2998 RMK AO2 SLP158 T00111028 51001
Loading
Personal Weather Stations






























Interactive Weather Map
Tropical Storm Tracking
New forecast layout! Learn more

10-Day Weather Forecast

Advertisements
Track Severe Weather on mobile